Language: 


Des rapports , des résumés tant et plus, au choix de chacun....


Données statistiques de la station
Quotidien Rapport Mars 23, 2017 Unités:  Métrique    Anglais   les deux
« Précédent Jour
Suivant Jour »
Quotidien Hebdomadaire Mensuel Annuel Actuel
  Haut: Bas: Moyen:
Température: 16.2 °C 2.7 °C 9.6 °C
Pt de rosée: 6.4 °C 1.4 °C 4 °C
Humidité: 97 % 47 % 70 %
Vitesse du vent: 27.4 km/h 0.0 km/h 12.1 km/h
Rafales: 28.5 km/h - -
Vent:- - ENE
Pression: 1018.8 hPa 1010.0 hPa -
Précipitation: 0.0 mm    
Historical Graphs
 
 
Données statistiques pour Mars 23, 2017
Heure Température Point de rosée Pression Vent Vitesse du vent Refales Humidité Pluie (taux horaire)
00:02 6.7 °C 2.2 °C 1010.0 hPa ESE 12.6 km/h 12.6 km/h 73 % 0.0 mm
00:07 6.7 °C 2.3 °C 1011.1 hPa East 10.1 km/h 12.6 km/h 74 % 0.0 mm
00:12 6.7 °C 2.3 °C 1011.1 hPa ESE 7.9 km/h 11.6 km/h 74 % 0.0 mm
00:17 6.6 °C 2.3 °C 1011.1 hPa ENE 6.4 km/h 10.1 km/h 74 % 0.0 mm
00:22 6.4 °C 2.1 °C 1010.0 hPa ENE 5.8 km/h 9.7 km/h 74 % 0.0 mm
00:27 6.3 °C 2.2 °C 1010.0 hPa East 1.4 km/h 10.1 km/h 75 % 0.0 mm
00:32 6.3 °C 2.2 °C 1010.0 hPa East 5.8 km/h 11.6 km/h 75 % 0.0 mm
00:37 6.3 °C 2.2 °C 1010.0 hPa ESE 6.4 km/h 11.6 km/h 75 % 0.0 mm
00:42 6.2 °C 2.3 °C 1010.0 hPa ESE 8.7 km/h 10.5 km/h 76 % 0.0 mm
00:47 6.1 °C 2.2 °C 1010.0 hPa Calm   10.5 km/h 76 % 0.0 mm
00:52 6.0 °C 2.1 °C 1011.1 hPa ESE 9.3 km/h 10.5 km/h 76 % 0.0 mm
00:57 6.0 °C 2.2 °C 1011.1 hPa ESE 9.0 km/h 9.3 km/h 77 % 0.0 mm
01:02 6.0 °C 2.1 °C 1011.1 hPa ESE 5.8 km/h 10.8 km/h 76 % 0.0 mm
01:07 6.0 °C 2.2 °C 1011.1 hPa Calm   11.9 km/h 77 % 0.0 mm
01:12 5.9 °C 2.2 °C 1011.1 hPa ESE 6.4 km/h 11.9 km/h 77 % 0.0 mm
01:17 5.8 °C 2.1 °C 1011.1 hPa Calm   10.5 km/h 77 % 0.0 mm
01:22 5.7 °C 2.2 °C 1011.1 hPa East 3.5 km/h 6.9 km/h 78 % 0.0 mm
01:27 5.6 °C 2.1 °C 1011.1 hPa East 6.4 km/h 9.3 km/h 78 % 0.0 mm
01:32 5.6 °C 2.1 °C 1011.1 hPa Calm   9.3 km/h 78 % 0.0 mm
01:37 5.5 °C 1.9 °C 1010.0 hPa East 1.4 km/h 6.9 km/h 78 % 0.0 mm
01:42 5.3 °C 1.8 °C 1010.0 hPa Calm   6.1 km/h 78 % 0.0 mm
01:47 5.3 °C 1.8 °C 1010.0 hPa ESE 6.1 km/h 6.9 km/h 78 % 0.0 mm
01:52 5.2 °C 1.8 °C 1011.1 hPa East 4.7 km/h 6.9 km/h 79 % 0.0 mm
01:57 5.2 °C 2.0 °C 1011.1 hPa East 5.8 km/h 9.0 km/h 80 % 0.0 mm
02:02 5.2 °C 2.0 °C 1011.1 hPa East 6.4 km/h 9.0 km/h 80 % 0.0 mm
02:07 5.2 °C 2.2 °C 1011.1 hPa ESE 6.1 km/h 9.7 km/h 81 % 0.0 mm
02:12 5.3 °C 2.4 °C 1011.1 hPa East 8.7 km/h 11.6 km/h 82 % 0.0 mm
02:17 5.2 °C 2.2 °C 1011.1 hPa East 9.0 km/h 11.6 km/h 81 % 0.0 mm
02:23 5.2 °C 2.2 °C 1011.1 hPa East 5.5 km/h 10.5 km/h 81 % 0.0 mm
02:28 5.2 °C 2.2 °C 1011.1 hPa East 5.0 km/h 10.5 km/h 81 % 0.0 mm
02:33 5.0 °C 2.0 °C 1011.1 hPa NE 4.3 km/h 7.9 km/h 81 % 0.0 mm
02:38 4.9 °C 1.9 °C 1011.1 hPa ENE 3.2 km/h 8.7 km/h 81 % 0.0 mm
02:43 4.7 °C 1.9 °C 1011.1 hPa East 6.1 km/h 8.7 km/h 82 % 0.0 mm
02:48 4.6 °C 1.8 °C 1011.1 hPa ENE 5.5 km/h 7.6 km/h 82 % 0.0 mm
02:53 4.5 °C 1.7 °C 1011.1 hPa NE 4.3 km/h 7.6 km/h 82 % 0.0 mm
02:58 4.4 °C 1.6 °C 1011.1 hPa ENE 6.4 km/h 7.6 km/h 82 % 0.0 mm
03:03 4.3 °C 1.7 °C 1011.1 hPa ENE 8.7 km/h 8.7 km/h 83 % 0.0 mm
03:08 4.2 °C 1.6 °C 1011.1 hPa East 5.0 km/h 7.9 km/h 83 % 0.0 mm
03:13 4.2 °C 1.7 °C 1011.1 hPa ENE 6.4 km/h 8.7 km/h 84 % 0.0 mm
03:16 4.2 °C 1.7 °C 1011.1 hPa East 6.1 km/h 8.7 km/h 84 % 0.0 mm
03:21 4.2 °C 1.7 °C 1011.1 hPa Calm   8.7 km/h 84 % 0.0 mm
03:26 4.1 °C 1.7 °C 1011.1 hPa ENE 6.1 km/h 8.7 km/h 84 % 0.0 mm
03:31 4.0 °C 1.6 °C 1011.1 hPa Calm   7.6 km/h 84 % 0.0 mm
03:36 3.9 °C 1.6 °C 1011.1 hPa NE 6.9 km/h 8.7 km/h 85 % 0.0 mm
03:41 3.9 °C 1.6 °C 1010.0 hPa NE 9.7 km/h 9.7 km/h 85 % 0.0 mm
03:46 3.9 °C 1.8 °C 1010.0 hPa NE 7.2 km/h 10.1 km/h 86 % 0.0 mm
03:51 3.8 °C 1.7 °C 1010.0 hPa ENE 7.9 km/h 10.1 km/h 86 % 0.0 mm
03:56 3.7 °C 1.6 °C 1011.1 hPa ENE 6.9 km/h 8.7 km/h 86 % 0.0 mm
04:01 3.6 °C 1.5 °C 1011.1 hPa NE 5.8 km/h 9.0 km/h 86 % 0.0 mm
04:06 3.6 °C 1.6 °C 1011.1 hPa NE 6.4 km/h 9.0 km/h 87 % 0.0 mm
04:11 3.6 °C 1.7 °C 1010.0 hPa ENE 9.3 km/h 9.3 km/h 87 % 0.0 mm
04:16 3.6 °C 1.7 °C 1010.0 hPa ENE 8.7 km/h 9.3 km/h 88 % 0.0 mm
04:21 3.6 °C 1.7 °C 1010.0 hPa ENE 7.6 km/h 9.7 km/h 88 % 0.0 mm
04:26 3.6 °C 1.7 °C 1011.1 hPa ENE 6.9 km/h 9.7 km/h 88 % 0.0 mm
04:31 3.6 °C 1.7 °C 1011.1 hPa ENE 6.9 km/h 9.0 km/h 88 % 0.0 mm
04:36 3.6 °C 1.7 °C 1011.1 hPa ENE 7.9 km/h 9.0 km/h 88 % 0.0 mm
04:41 3.6 °C 1.9 °C 1011.1 hPa NNE 7.9 km/h 10.5 km/h 89 % 0.0 mm
04:46 3.6 °C 1.9 °C 1011.1 hPa NE 7.9 km/h 10.5 km/h 89 % 0.0 mm
04:51 3.4 °C 1.8 °C 1011.1 hPa NNE 9.0 km/h 9.0 km/h 89 % 0.0 mm
04:56 3.3 °C 1.7 °C 1011.1 hPa NE 7.9 km/h 9.3 km/h 89 % 0.0 mm
05:01 3.3 °C 1.7 °C 1011.1 hPa NNE 6.4 km/h 9.3 km/h 89 % 0.0 mm
05:06 3.2 °C 1.6 °C 1011.1 hPa NE 5.8 km/h 8.7 km/h 89 % 0.0 mm
05:11 3.1 °C 1.4 °C 1011.1 hPa NE 6.9 km/h 7.9 km/h 89 % 0.0 mm
05:16 3.2 °C 1.8 °C 1011.1 hPa North 7.6 km/h 9.0 km/h 90 % 0.0 mm
05:22 3.1 °C 1.8 °C 1011.1 hPa NNE 6.4 km/h 9.0 km/h 91 % 0.0 mm
05:27 3.1 °C 1.7 °C 1011.1 hPa East 6.4 km/h 9.0 km/h 91 % 0.0 mm
05:32 2.9 °C 1.6 °C 1011.1 hPa NNE 9.0 km/h 9.7 km/h 91 % 0.0 mm
05:37 2.9 °C 1.6 °C 1011.1 hPa NNE 7.6 km/h 9.7 km/h 91 % 0.0 mm
05:42 2.8 °C 1.7 °C 1011.1 hPa NE 6.4 km/h 9.7 km/h 92 % 0.0 mm
05:47 2.7 °C 1.6 °C 1011.1 hPa NNE 9.7 km/h 9.7 km/h 92 % 0.0 mm
05:52 2.7 °C 1.7 °C 1011.1 hPa NNE 6.9 km/h 10.1 km/h 93 % 0.0 mm
05:57 2.7 °C 1.7 °C 1010.0 hPa NNE 10.8 km/h 11.6 km/h 93 % 0.0 mm
06:02 2.8 °C 1.9 °C 1010.0 hPa NNE 9.0 km/h 12.6 km/h 94 % 0.0 mm
06:07 2.8 °C 1.9 °C 1010.0 hPa NNE 9.0 km/h 12.6 km/h 94 % 0.0 mm
06:12 2.7 °C 1.9 °C 1011.1 hPa NE 7.9 km/h 9.7 km/h 94 % 0.0 mm
06:17 2.8 °C 2.1 °C 1011.1 hPa NE 9.0 km/h 9.7 km/h 95 % 0.0 mm
06:22 2.8 °C 2.1 °C 1011.1 hPa NNE 4.7 km/h 9.3 km/h 95 % 0.0 mm
06:27 2.8 °C 1.9 °C 1011.1 hPa North 5.0 km/h 9.0 km/h 94 % 0.0 mm
06:32 2.7 °C 1.9 °C 1011.1 hPa North 5.8 km/h 6.4 km/h 94 % 0.0 mm
06:37 2.7 °C 1.9 °C 1011.1 hPa Calm   6.4 km/h 94 % 0.0 mm
06:42 2.7 °C 1.8 °C 1011.1 hPa Calm   5.5 km/h 94 % 0.0 mm
06:47 2.7 °C 1.9 °C 1011.1 hPa ENE 6.4 km/h 6.9 km/h 94 % 0.0 mm
06:52 2.9 °C 2.2 °C 1010.0 hPa ENE 8.7 km/h 9.0 km/h 95 % 0.0 mm
06:57 3.1 °C 2.3 °C 1010.0 hPa NE 7.9 km/h 10.1 km/h 95 % 0.0 mm
07:02 3.2 °C 2.7 °C 1010.0 hPa NE 9.3 km/h 10.1 km/h 96 % 0.0 mm
07:07 3.4 °C 3.0 °C 1010.0 hPa ENE 9.7 km/h 11.6 km/h 97 % 0.0 mm
07:12 3.8 °C 3.4 °C 1010.0 hPa NE 14.0 km/h 16.3 km/h 97 % 0.0 mm
07:17 4.0 °C 3.6 °C 1010.0 hPa NE 11.9 km/h 16.3 km/h 97 % 0.0 mm
07:22 4.0 °C 3.6 °C 1011.1 hPa NE 14.8 km/h 16.3 km/h 97 % 0.0 mm
07:27 4.2 °C 3.8 °C 1011.1 hPa ENE 8.7 km/h 16.3 km/h 97 % 0.0 mm
07:32 4.2 °C 3.8 °C 1011.1 hPa ENE 8.7 km/h 15.8 km/h 97 % 0.0 mm
07:37 4.4 °C 4.0 °C 1011.1 hPa NE 6.4 km/h 11.6 km/h 97 % 0.0 mm
07:42 4.5 °C 3.9 °C 1011.1 hPa NE 5.5 km/h 9.3 km/h 96 % 0.0 mm
07:47 4.5 °C 3.9 °C 1011.1 hPa NE 6.4 km/h 7.9 km/h 96 % 0.0 mm
07:52 4.6 °C 4.0 °C 1011.1 hPa NE 9.0 km/h 10.1 km/h 96 % 0.0 mm
07:57 4.7 °C 4.1 °C 1011.1 hPa ENE 7.9 km/h 10.1 km/h 96 % 0.0 mm
08:02 4.7 °C 4.1 °C 1011.1 hPa NE 8.7 km/h 11.9 km/h 96 % 0.0 mm
08:07 4.7 °C 4.1 °C 1012.1 hPa NE 9.7 km/h 11.9 km/h 96 % 0.0 mm
08:12 4.7 °C 4.1 °C 1012.1 hPa NE 8.7 km/h 14.0 km/h 96 % 0.0 mm
08:17 4.7 °C 3.9 °C 1012.1 hPa NE 7.9 km/h 14.0 km/h 95 % 0.0 mm
08:22 4.8 °C 4.1 °C 1012.1 hPa ENE 8.7 km/h 11.6 km/h 95 % 0.0 mm
08:27 4.9 °C 4.2 °C 1012.1 hPa NNE 9.3 km/h 12.2 km/h 95 % 0.0 mm
08:32 5.5 °C 4.9 °C 1012.1 hPa NE 12.2 km/h 14.0 km/h 96 % 0.0 mm
08:37 6.1 °C 5.5 °C 1013.1 hPa NE 11.6 km/h 14.0 km/h 96 % 0.0 mm
08:42 6.4 °C 5.9 °C 1013.1 hPa NNE 10.1 km/h 14.0 km/h 96 % 0.0 mm
08:47 6.8 °C 6.0 °C 1013.1 hPa NE 15.1 km/h 15.1 km/h 95 % 0.0 mm
08:52 6.9 °C 5.9 °C 1013.1 hPa ENE 12.2 km/h 15.4 km/h 93 % 0.0 mm
08:57 7.3 °C 6.1 °C 1013.1 hPa ENE 14.0 km/h 15.4 km/h 92 % 0.0 mm
09:02 7.6 °C 6.2 °C 1013.1 hPa NNE 14.0 km/h 14.8 km/h 91 % 0.0 mm
09:07 7.7 °C 5.9 °C 1013.1 hPa NE 16.9 km/h 16.9 km/h 89 % 0.0 mm
09:12 7.8 °C 5.8 °C 1013.1 hPa NE 15.8 km/h 16.9 km/h 87 % 0.0 mm
09:17 8.1 °C 5.8 °C 1013.1 hPa NE 15.8 km/h 16.9 km/h 86 % 0.0 mm
09:23 8.2 °C 5.8 °C 1012.1 hPa ENE 10.5 km/h 16.9 km/h 85 % 0.0 mm
09:28 8.3 °C 5.9 °C 1012.1 hPa ENE 13.7 km/h 16.9 km/h 85 % 0.0 mm
09:33 8.7 °C 6.3 °C 1012.1 hPa NE 12.2 km/h 14.0 km/h 85 % 0.0 mm
09:38 8.7 °C 6.0 °C 1012.1 hPa ENE 12.6 km/h 16.3 km/h 83 % 0.0 mm
09:43 8.5 °C 5.6 °C 1012.1 hPa ENE 11.1 km/h 16.3 km/h 82 % 0.0 mm
09:48 8.4 °C 5.3 °C 1012.1 hPa ENE 12.6 km/h 15.8 km/h 81 % 0.0 mm
09:53 8.5 °C 5.4 °C 1013.1 hPa ENE 16.6 km/h 20.1 km/h 81 % 0.0 mm
09:58 9.1 °C 6.0 °C 1013.1 hPa ENE 13.0 km/h 20.1 km/h 81 % 0.0 mm
10:03 9.4 °C 6.3 °C 1013.1 hPa NE 13.0 km/h 17.2 km/h 81 % 0.0 mm
10:08 9.6 °C 5.8 °C 1013.1 hPa ENE 11.9 km/h 17.7 km/h 77 % 0.0 mm
10:13 9.8 °C 5.8 °C 1013.1 hPa ENE 16.9 km/h 17.7 km/h 76 % 0.0 mm
10:18 9.9 °C 5.7 °C 1013.1 hPa ENE 15.4 km/h 19.5 km/h 75 % 0.0 mm
10:23 10.2 °C 5.9 °C 1013.1 hPa NE 13.7 km/h 19.5 km/h 75 % 0.0 mm
10:28 10.4 °C 5.9 °C 1013.1 hPa ENE 16.3 km/h 17.7 km/h 74 % 0.0 mm
10:33 10.6 °C 5.9 °C 1013.1 hPa NE 15.8 km/h 18.3 km/h 73 % 0.0 mm
10:38 10.8 °C 5.9 °C 1013.1 hPa East 12.2 km/h 18.3 km/h 72 % 0.0 mm
10:43 11.2 °C 6.3 °C 1013.1 hPa East 10.1 km/h 21.6 km/h 72 % 0.0 mm
10:48 11.4 °C 6.4 °C 1013.1 hPa NE 14.0 km/h 21.6 km/h 71 % 0.0 mm
10:53 11.4 °C 5.9 °C 1013.1 hPa ENE 13.0 km/h 21.2 km/h 69 % 0.0 mm
10:58 11.7 °C 6.2 °C 1013.1 hPa ENE 14.8 km/h 21.2 km/h 69 % 0.0 mm
11:03 11.4 °C 5.6 °C 1013.1 hPa ENE 21.9 km/h 23.3 km/h 67 % 0.0 mm
11:08 11.6 °C 5.7 °C 1013.1 hPa ENE 14.8 km/h 23.3 km/h 67 % 0.0 mm
11:09 11.7 °C 5.5 °C 1013.1 hPa ENE 14.0 km/h 23.3 km/h 66 % 0.0 mm
11:14 11.9 °C 5.8 °C 1013.1 hPa NE 19.8 km/h 24.8 km/h 66 % 0.0 mm
11:19 12.1 °C 5.7 °C 1013.1 hPa NE 14.0 km/h 24.8 km/h 65 % 0.0 mm
11:24 12.2 °C 5.6 °C 1013.1 hPa NE 22.4 km/h 24.5 km/h 64 % 0.0 mm
11:29 12.2 °C 5.3 °C 1013.1 hPa East 23.0 km/h 24.5 km/h 63 % 0.0 mm
11:34 12.7 °C 5.8 °C 1013.1 hPa ENE 19.8 km/h 24.5 km/h 63 % 0.0 mm
11:39 12.6 °C 5.4 °C 1013.1 hPa East 16.9 km/h 28.0 km/h 62 % 0.0 mm
11:40 12.6 °C 5.2 °C 1013.1 hPa ENE 16.9 km/h 28.0 km/h 61 % 0.0 mm
11:45 12.7 °C 5.2 °C 1013.1 hPa NE 13.7 km/h 28.0 km/h 60 % 0.0 mm
11:50 13.1 °C 5.4 °C 1013.1 hPa East 15.4 km/h 28.5 km/h 60 % 0.0 mm
11:55 13.3 °C 5.9 °C 1013.1 hPa East 15.8 km/h 28.5 km/h 61 % 0.0 mm
12:00 13.5 °C 6.2 °C 1013.1 hPa NE 19.8 km/h 24.8 km/h 61 % 0.0 mm
12:05 13.5 °C 5.4 °C 1013.1 hPa ENE 20.6 km/h 28.5 km/h 58 % 0.0 mm
12:10 13.7 °C 5.6 °C 1013.1 hPa ENE 14.0 km/h 28.5 km/h 58 % 0.0 mm
12:15 13.8 °C 5.4 °C 1013.1 hPa East 16.6 km/h 21.6 km/h 57 % 0.0 mm
12:20 13.8 °C 5.7 °C 1013.1 hPa ESE 11.9 km/h 21.9 km/h 58 % 0.0 mm
12:26 13.7 °C 5.1 °C 1013.1 hPa East 16.6 km/h 27.4 km/h 56 % 0.0 mm
12:31 13.9 °C 5.3 °C 1013.1 hPa East 21.2 km/h 27.4 km/h 56 % 0.0 mm
12:36 14.0 °C 5.4 °C 1013.1 hPa East 19.8 km/h 25.3 km/h 56 % 0.0 mm
12:41 13.7 °C 5.1 °C 1013.1 hPa East 16.9 km/h 25.3 km/h 56 % 0.0 mm
12:46 13.9 °C 5.6 °C 1013.1 hPa East 10.5 km/h 25.6 km/h 57 % 0.0 mm
12:51 14.0 °C 5.4 °C 1013.1 hPa East 12.6 km/h 25.6 km/h 56 % 0.0 mm
12:56 13.6 °C 5.0 °C 1013.1 hPa East 19.8 km/h 22.4 km/h 56 % 0.0 mm
13:01 13.8 °C 5.2 °C 1013.1 hPa East 16.3 km/h 22.4 km/h 56 % 0.0 mm
13:06 13.7 °C 4.8 °C 1013.1 hPa East 13.0 km/h 23.3 km/h 55 % 0.0 mm
13:11 13.5 °C 5.2 °C 1013.1 hPa East 19.1 km/h 23.3 km/h 57 % 0.0 mm
13:16 13.5 °C 5.4 °C 1013.1 hPa ENE 14.0 km/h 20.9 km/h 58 % 0.0 mm
13:21 13.6 °C 5.8 °C 1013.1 hPa ENE 21.6 km/h 21.6 km/h 59 % 0.0 mm
13:26 13.5 °C 5.9 °C 1013.1 hPa East 17.2 km/h 23.8 km/h 60 % 0.0 mm
13:31 13.5 °C 5.4 °C 1013.1 hPa ENE 17.7 km/h 23.8 km/h 58 % 0.0 mm
13:36 13.4 °C 5.3 °C 1013.1 hPa ENE 13.7 km/h 20.9 km/h 58 % 0.0 mm
13:41 13.5 °C 5.4 °C 1013.1 hPa ENE 15.4 km/h 24.5 km/h 58 % 0.0 mm
13:46 13.9 °C 6.1 °C 1013.1 hPa ENE 27.4 km/h 27.4 km/h 59 % 0.0 mm
13:51 14.3 °C 6.2 °C 1013.1 hPa NE 15.8 km/h 27.4 km/h 58 % 0.0 mm
13:56 14.2 °C 5.6 °C 1013.1 hPa NE 20.6 km/h 25.9 km/h 56 % 0.0 mm
14:01 14.4 °C 6.0 °C 1013.1 hPa East 13.0 km/h 25.9 km/h 57 % 0.0 mm
14:06 14.5 °C 5.6 °C 1013.1 hPa East 13.7 km/h 24.8 km/h 55 % 0.0 mm
14:11 14.6 °C 5.9 °C 1013.1 hPa ENE 14.8 km/h 23.8 km/h 56 % 0.0 mm
14:16 14.9 °C 5.9 °C 1013.1 hPa East 14.8 km/h 20.9 km/h 55 % 0.0 mm
14:21 15.2 °C 5.9 °C 1013.1 hPa East 20.1 km/h 23.8 km/h 54 % 0.0 mm
14:22 15.2 °C 5.9 °C 1013.1 hPa ENE 16.6 km/h 23.8 km/h 54 % 0.0 mm
14:27 15.1 °C 5.6 °C 1013.1 hPa NNE 14.3 km/h 23.8 km/h 53 % 0.0 mm
14:32 14.8 °C 5.1 °C 1013.1 hPa ENE 14.8 km/h 24.8 km/h 52 % 0.0 mm
14:42 15.1 °C 4.7 °C 1013.1 hPa ENE 17.2 km/h 24.8 km/h 50 % 0.0 mm
14:47 15.3 °C 4.9 °C 1013.1 hPa East 14.0 km/h 24.5 km/h 50 % 0.0 mm
14:52 15.9 °C 5.4 °C 1013.1 hPa East 21.6 km/h 24.5 km/h 50 % 0.0 mm
14:57 16.1 °C 5.7 °C 1013.1 hPa East 13.0 km/h 22.4 km/h 50 % 0.0 mm
15:02 15.9 °C 5.2 °C 1013.1 hPa NE 17.2 km/h 25.6 km/h 49 % 0.0 mm
15:07 16.1 °C 5.3 °C 1013.1 hPa NE 13.0 km/h 26.7 km/h 49 % 0.0 mm
15:12 16.2 °C 5.4 °C 1013.1 hPa ENE 15.4 km/h 26.7 km/h 49 % 0.0 mm
15:17 15.9 °C 5.2 °C 1013.1 hPa ENE 14.3 km/h 24.8 km/h 49 % 0.0 mm
15:22 16.0 °C 5.3 °C 1013.1 hPa East 15.8 km/h 24.8 km/h 49 % 0.0 mm
15:27 15.8 °C 4.8 °C 1013.1 hPa ENE 25.3 km/h 27.0 km/h 48 % 0.0 mm
15:32 15.8 °C 4.8 °C 1013.1 hPa ENE 10.5 km/h 27.0 km/h 48 % 0.0 mm
15:37 16.0 °C 5.3 °C 1013.1 hPa East 13.0 km/h 26.7 km/h 49 % 0.0 mm
15:42 16.1 °C 5.3 °C 1013.1 hPa ENE 12.2 km/h 23.8 km/h 49 % 0.0 mm
15:47 16.0 °C 4.9 °C 1013.1 hPa East 17.7 km/h 24.8 km/h 48 % 0.0 mm
15:52 15.8 °C 4.5 °C 1013.1 hPa East 20.6 km/h 25.3 km/h 47 % 0.0 mm
15:57 15.9 °C 4.6 °C 1013.1 hPa East 15.8 km/h 25.6 km/h 47 % 0.0 mm
16:02 15.9 °C 4.6 °C 1013.1 hPa ENE 24.5 km/h 27.7 km/h 47 % 0.0 mm
16:07 15.8 °C 4.8 °C 1014.1 hPa East 12.2 km/h 27.7 km/h 48 % 0.0 mm
16:12 15.6 °C 4.6 °C 1014.1 hPa East 16.3 km/h 20.9 km/h 48 % 0.0 mm
16:17 15.7 °C 4.4 °C 1014.1 hPa East 9.3 km/h 21.9 km/h 47 % 0.0 mm
16:27 15.9 °C 4.6 °C 1013.1 hPa ENE 14.0 km/h 24.5 km/h 47 % 0.0 mm
16:32 15.8 °C 4.5 °C 1013.1 hPa East 21.9 km/h 25.9 km/h 47 % 0.0 mm
16:37 15.5 °C 4.5 °C 1012.1 hPa ESE 12.6 km/h 25.9 km/h 48 % 0.0 mm
16:42 15.2 °C 3.9 °C 1012.1 hPa ENE 14.0 km/h 20.9 km/h 47 % 0.0 mm
16:47 15.3 °C 4.3 °C 1012.1 hPa East 10.5 km/h 21.2 km/h 48 % 0.0 mm
16:52 15.3 °C 4.3 °C 1013.1 hPa East 17.2 km/h 21.2 km/h 48 % 0.0 mm
16:57 15.1 °C 4.2 °C 1013.1 hPa NNE 17.7 km/h 21.2 km/h 48 % 0.0 mm
17:02 15.1 °C 4.2 °C 1013.1 hPa ENE 14.8 km/h 21.9 km/h 48 % 0.0 mm
17:07 15.1 °C 4.2 °C 1013.1 hPa ENE 13.0 km/h 21.9 km/h 48 % 0.0 mm
17:12 15.1 °C 4.2 °C 1013.1 hPa ENE 14.0 km/h 23.8 km/h 48 % 0.0 mm
17:17 14.9 °C 4.0 °C 1013.1 hPa ENE 13.7 km/h 23.8 km/h 48 % 0.0 mm
17:22 14.8 °C 3.9 °C 1013.1 hPa ENE 17.2 km/h 23.8 km/h 48 % 0.0 mm
17:27 14.6 °C 4.0 °C 1013.1 hPa ENE 12.2 km/h 23.8 km/h 49 % 0.0 mm
17:32 14.5 °C 3.9 °C 1013.1 hPa NE 12.6 km/h 17.7 km/h 49 % 0.0 mm
17:38 14.4 °C 3.8 °C 1013.1 hPa ENE 12.2 km/h 17.7 km/h 49 % 0.0 mm
17:43 14.3 °C 4.0 °C 1013.1 hPa ENE 7.9 km/h 17.7 km/h 50 % 0.0 mm
17:48 14.1 °C 3.8 °C 1013.1 hPa NE 12.6 km/h 13.0 km/h 50 % 0.0 mm
17:53 14.1 °C 3.8 °C 1013.1 hPa ENE 13.7 km/h 15.8 km/h 50 % 0.0 mm
17:58 14.0 °C 3.7 °C 1013.1 hPa ENE 14.0 km/h 19.8 km/h 50 % 0.0 mm
18:03 14.0 °C 3.7 °C 1013.1 hPa ENE 12.2 km/h 19.8 km/h 50 % 0.0 mm
18:08 13.9 °C 3.7 °C 1013.1 hPa ENE 14.0 km/h 17.2 km/h 50 % 0.0 mm
18:13 13.8 °C 3.8 °C 1013.1 hPa ENE 13.0 km/h 16.3 km/h 51 % 0.0 mm
18:18 13.7 °C 3.8 °C 1013.1 hPa ENE 9.7 km/h 16.3 km/h 51 % 0.0 mm
18:23 13.7 °C 3.8 °C 1013.1 hPa East 11.9 km/h 17.7 km/h 51 % 0.0 mm
18:28 13.6 °C 3.9 °C 1014.1 hPa ENE 12.2 km/h 17.7 km/h 52 % 0.0 mm
18:33 13.6 °C 3.9 °C 1014.1 hPa NE 15.8 km/h 16.6 km/h 52 % 0.0 mm
18:38 13.4 °C 3.8 °C 1014.1 hPa NNE 8.7 km/h 16.6 km/h 52 % 0.0 mm
18:43 13.4 °C 3.8 °C 1014.1 hPa NE 14.0 km/h 16.9 km/h 52 % 0.0 mm
18:48 13.2 °C 3.6 °C 1014.1 hPa ENE 13.0 km/h 16.9 km/h 52 % 0.0 mm
18:53 13.2 °C 3.6 °C 1014.1 hPa ENE 12.6 km/h 17.2 km/h 52 % 0.0 mm
18:58 13.1 °C 3.5 °C 1014.1 hPa ENE 13.0 km/h 17.2 km/h 52 % 0.0 mm
19:03 13.1 °C 3.7 °C 1014.1 hPa ENE 9.3 km/h 16.6 km/h 53 % 0.0 mm
19:08 12.9 °C 3.6 °C 1014.1 hPa NE 13.7 km/h 16.6 km/h 53 % 0.0 mm
19:12 12.9 °C 3.6 °C 1014.1 hPa NE 11.9 km/h 14.0 km/h 53 % 0.0 mm
19:22 12.8 °C 3.5 °C 1014.1 hPa NE 13.0 km/h 16.6 km/h 53 % 0.0 mm
19:25 12.7 °C 3.7 °C 1014.1 hPa NE 13.0 km/h 16.3 km/h 54 % 0.0 mm
19:30 12.7 °C 3.6 °C 1014.1 hPa NE 12.2 km/h 15.8 km/h 54 % 0.0 mm
19:35 12.4 °C 3.7 °C 1014.1 hPa NE 15.4 km/h 15.8 km/h 55 % 0.0 mm
19:40 12.2 °C 3.4 °C 1015.1 hPa NNW 15.8 km/h 15.8 km/h 55 % 0.0 mm
19:41 12.2 °C 3.4 °C 1015.1 hPa NE 14.8 km/h 15.8 km/h 55 % 0.0 mm
19:46 12.2 °C 3.7 °C 1015.1 hPa NE 16.3 km/h 17.2 km/h 56 % 0.0 mm
19:51 12.2 °C 3.9 °C 1015.1 hPa NNE 11.6 km/h 19.1 km/h 57 % 0.0 mm
19:56 12.1 °C 4.1 °C 1015.1 hPa NE 15.1 km/h 17.2 km/h 58 % 0.0 mm
20:01 11.9 °C 4.2 °C 1015.1 hPa NE 16.3 km/h 20.6 km/h 59 % 0.0 mm
20:06 11.8 °C 4.3 °C 1015.1 hPa ENE 15.8 km/h 20.6 km/h 60 % 0.0 mm
20:11 11.8 °C 4.2 °C 1015.1 hPa NE 16.6 km/h 16.6 km/h 60 % 0.0 mm
20:16 11.8 °C 4.6 °C 1015.1 hPa NNE 14.0 km/h 20.9 km/h 61 % 0.0 mm
20:21 11.7 °C 4.6 °C 1015.1 hPa NE 16.3 km/h 20.9 km/h 62 % 0.0 mm
20:26 11.6 °C 4.5 °C 1014.1 hPa NE 16.3 km/h 18.3 km/h 62 % 0.0 mm
20:31 11.4 °C 4.7 °C 1014.1 hPa NE 14.3 km/h 18.0 km/h 63 % 0.0 mm
20:36 11.4 °C 4.9 °C 1014.1 hPa NE 14.8 km/h 20.6 km/h 64 % 0.0 mm
20:41 11.4 °C 4.9 °C 1015.1 hPa ENE 12.2 km/h 20.6 km/h 64 % 0.0 mm
20:46 11.4 °C 5.0 °C 1015.1 hPa NE 16.6 km/h 19.5 km/h 65 % 0.0 mm
20:51 11.4 °C 5.1 °C 1015.1 hPa NE 15.8 km/h 22.4 km/h 65 % 0.0 mm
20:56 11.4 °C 5.0 °C 1016.1 hPa NE 15.4 km/h 23.3 km/h 65 % 0.0 mm
21:01 11.4 °C 5.2 °C 1016.1 hPa NE 13.0 km/h 23.3 km/h 66 % 0.0 mm
21:06 11.3 °C 5.2 °C 1016.1 hPa NE 19.1 km/h 21.2 km/h 66 % 0.0 mm
21:12 11.2 °C 5.1 °C 1016.1 hPa NE 18.0 km/h 19.1 km/h 66 % 0.0 mm
21:17 11.2 °C 5.3 °C 1016.1 hPa NE 14.3 km/h 20.9 km/h 67 % 0.0 mm
21:22 11.2 °C 5.3 °C 1016.1 hPa NE 16.3 km/h 20.9 km/h 67 % 0.0 mm
21:27 11.2 °C 5.1 °C 1016.1 hPa ENE 14.8 km/h 26.2 km/h 66 % 0.0 mm
21:32 11.2 °C 5.1 °C 1016.1 hPa NE 15.8 km/h 26.2 km/h 66 % 0.0 mm
21:37 11.1 °C 4.9 °C 1016.1 hPa ENE 16.9 km/h 20.9 km/h 66 % 0.0 mm
21:42 11.1 °C 4.9 °C 1016.8 hPa NE 15.8 km/h 23.8 km/h 66 % 0.0 mm
21:47 11.1 °C 4.9 °C 1016.8 hPa NE 17.7 km/h 27.4 km/h 66 % 0.0 mm
21:52 11.1 °C 4.9 °C 1016.8 hPa ENE 12.6 km/h 27.4 km/h 66 % 0.0 mm
21:57 11.1 °C 4.9 °C 1016.8 hPa East 16.3 km/h 21.2 km/h 66 % 0.0 mm
22:02 11.0 °C 4.9 °C 1016.8 hPa ENE 23.8 km/h 23.8 km/h 66 % 0.0 mm
22:07 11.1 °C 4.9 °C 1016.8 hPa ENE 11.9 km/h 23.8 km/h 66 % 0.0 mm
22:17 11.0 °C 4.9 °C 1016.8 hPa ENE 10.1 km/h 24.5 km/h 66 % 0.0 mm
22:22 10.9 °C 4.8 °C 1016.8 hPa ENE 14.0 km/h 21.2 km/h 66 % 0.0 mm
22:27 10.9 °C 4.8 °C 1016.8 hPa ENE 13.0 km/h 21.2 km/h 66 % 0.0 mm
22:32 10.8 °C 4.9 °C 1016.8 hPa ENE 21.2 km/h 21.2 km/h 67 % 0.0 mm
22:37 10.8 °C 4.9 °C 1016.8 hPa NE 13.7 km/h 28.0 km/h 67 % 0.0 mm
22:42 10.7 °C 4.8 °C 1018.2 hPa ENE 15.8 km/h 28.0 km/h 67 % 0.0 mm
22:47 10.7 °C 5.0 °C 1018.2 hPa NE 14.0 km/h 21.6 km/h 68 % 0.0 mm
22:52 10.6 °C 4.9 °C 1018.2 hPa ENE 16.3 km/h 21.6 km/h 68 % 0.0 mm
22:57 10.6 °C 4.9 °C 1018.2 hPa NE 12.6 km/h 20.6 km/h 68 % 0.0 mm
23:02 10.5 °C 4.8 °C 1018.2 hPa East 13.7 km/h 19.8 km/h 68 % 0.0 mm
23:07 10.5 °C 5.1 °C 1018.2 hPa NE 16.3 km/h 27.0 km/h 69 % 0.0 mm
23:12 10.4 °C 4.9 °C 1018.2 hPa ENE 16.3 km/h 27.0 km/h 69 % 0.0 mm
23:17 10.4 °C 4.9 °C 1018.2 hPa ENE 12.6 km/h 20.1 km/h 69 % 0.0 mm
23:22 10.4 °C 4.9 °C 1018.8 hPa NE 12.2 km/h 21.2 km/h 69 % 0.0 mm
23:27 10.4 °C 4.9 °C 1018.8 hPa ENE 19.1 km/h 21.2 km/h 69 % 0.0 mm
23:32 10.4 °C 4.9 °C 1018.8 hPa ESE 8.7 km/h 23.3 km/h 69 % 0.0 mm
23:34 10.4 °C 4.9 °C 1018.8 hPa NE 16.9 km/h 23.3 km/h 69 % 0.0 mm
23:39 10.3 °C 4.8 °C 1018.8 hPa NE 12.6 km/h 23.3 km/h 69 % 0.0 mm
23:44 10.3 °C 4.8 °C 1018.8 hPa East 13.7 km/h 21.2 km/h 69 % 0.0 mm
23:49 10.3 °C 4.8 °C 1018.8 hPa ENE 20.6 km/h 23.3 km/h 69 % 0.0 mm
23:54 10.3 °C 4.8 °C 1018.8 hPa NNE 9.7 km/h 27.0 km/h 69 % 0.0 mm
23:59 10.3 °C 4.8 °C 1018.8 hPa ENE 14.0 km/h 27.0 km/h 69 % 0.0 mm
Le Gheer Warneton
Courtoisie de Weather Underground - 2.5 mb

Mise a jour : 18/12/2017 23:04:15
Généré par Cumulus 1.9.4 (1099)